sensor_id;sensor_type;location;lat;lon;timestamp;P1;durP1;ratioP1;P2;durP2;ratioP2
1380;SDS011;684;48.342;10.096;2023-04-25T00:02:06;7.80;;;2.70;;
1380;SDS011;684;48.342;10.096;2023-04-25T00:04:34;9.60;;;3.17;;
1380;SDS011;684;48.342;10.096;2023-04-25T00:07:03;11.73;;;3.20;;
1380;SDS011;684;48.342;10.096;2023-04-25T00:09:29;6.53;;;2.73;;
1380;SDS011;684;48.342;10.096;2023-04-25T00:11:56;6.50;;;2.67;;
1380;SDS011;684;48.342;10.096;2023-04-25T00:14:23;7.83;;;2.83;;
1380;SDS011;684;48.342;10.096;2023-04-25T00:16:50;6.13;;;2.57;;
1380;SDS011;684;48.342;10.096;2023-04-25T00:19:17;5.30;;;2.30;;
1380;SDS011;684;48.342;10.096;2023-04-25T00:21:45;5.50;;;2.53;;
1380;SDS011;684;48.342;10.096;2023-04-25T00:24:11;6.23;;;2.80;;
1380;SDS011;684;48.342;10.096;2023-04-25T00:26:38;5.20;;;2.80;;
1380;SDS011;684;48.342;10.096;2023-04-25T00:29:05;7.70;;;2.90;;
1380;SDS011;684;48.342;10.096;2023-04-25T00:31:32;6.33;;;2.90;;
1380;SDS011;684;48.342;10.096;2023-04-25T00:33:59;9.87;;;3.27;;
1380;SDS011;684;48.342;10.096;2023-04-25T00:36:25;6.97;;;3.10;;
1380;SDS011;684;48.342;10.096;2023-04-25T00:38:54;5.80;;;2.57;;
1380;SDS011;684;48.342;10.096;2023-04-25T00:41:20;7.93;;;2.73;;
1380;SDS011;684;48.342;10.096;2023-04-25T00:43:47;5.20;;;2.17;;
1380;SDS011;684;48.342;10.096;2023-04-25T00:46:14;5.80;;;3.40;;
1380;SDS011;684;48.342;10.096;2023-04-25T00:48:41;5.80;;;3.03;;
1380;SDS011;684;48.342;10.096;2023-04-25T00:51:15;7.23;;;3.30;;
1380;SDS011;684;48.342;10.096;2023-04-25T00:53:45;6.40;;;3.10;;
1380;SDS011;684;48.342;10.096;2023-04-25T00:56:14;6.60;;;3.30;;
1380;SDS011;684;48.342;10.096;2023-04-25T00:58:41;6.70;;;3.03;;
1380;SDS011;684;48.342;10.096;2023-04-25T01:01:08;6.53;;;2.90;;
1380;SDS011;684;48.342;10.096;2023-04-25T01:03:37;6.13;;;2.97;;
1380;SDS011;684;48.342;10.096;2023-04-25T01:06:06;6.77;;;4.33;;
1380;SDS011;684;48.342;10.096;2023-04-25T01:08:33;6.60;;;3.60;;
1380;SDS011;684;48.342;10.096;2023-04-25T01:11:00;6.80;;;3.63;;
1380;SDS011;684;48.342;10.096;2023-04-25T01:13:28;5.83;;;3.03;;
1380;SDS011;684;48.342;10.096;2023-04-25T01:15:56;8.90;;;3.37;;
1380;SDS011;684;48.342;10.096;2023-04-25T01:18:23;5.97;;;3.43;;
1380;SDS011;684;48.342;10.096;2023-04-25T01:20:51;7.53;;;3.07;;
1380;SDS011;684;48.342;10.096;2023-04-25T01:23:20;6.30;;;3.40;;
1380;SDS011;684;48.342;10.096;2023-04-25T01:25:48;7.20;;;4.03;;
1380;SDS011;684;48.342;10.096;2023-04-25T01:28:15;6.37;;;3.87;;
1380;SDS011;684;48.342;10.096;2023-04-25T01:30:42;10.57;;;4.03;;
1380;SDS011;684;48.342;10.096;2023-04-25T01:33:09;6.63;;;3.60;;
1380;SDS011;684;48.342;10.096;2023-04-25T01:35:37;6.70;;;3.50;;
1380;SDS011;684;48.342;10.096;2023-04-25T01:38:04;7.20;;;4.33;;
1380;SDS011;684;48.342;10.096;2023-04-25T01:40:32;5.53;;;3.00;;
1380;SDS011;684;48.342;10.096;2023-04-25T01:43:00;7.70;;;3.73;;
1380;SDS011;684;48.342;10.096;2023-04-25T01:45:27;6.50;;;3.27;;
1380;SDS011;684;48.342;10.096;2023-04-25T01:47:54;8.80;;;3.97;;
1380;SDS011;684;48.342;10.096;2023-04-25T01:50:24;6.50;;;3.40;;
1380;SDS011;684;48.342;10.096;2023-04-25T01:52:51;7.70;;;3.07;;
1380;SDS011;684;48.342;10.096;2023-04-25T01:55:18;10.63;;;4.37;;
1380;SDS011;684;48.342;10.096;2023-04-25T01:57:46;9.87;;;3.70;;
1380;SDS011;684;48.342;10.096;2023-04-25T02:00:13;5.67;;;2.80;;
1380;SDS011;684;48.342;10.096;2023-04-25T02:02:40;11.80;;;3.70;;
1380;SDS011;684;48.342;10.096;2023-04-25T02:05:07;8.17;;;4.10;;
1380;SDS011;684;48.342;10.096;2023-04-25T02:07:34;8.47;;;3.67;;
1380;SDS011;684;48.342;10.096;2023-04-25T02:10:01;7.80;;;3.00;;
1380;SDS011;684;48.342;10.096;2023-04-25T02:12:28;6.70;;;3.10;;
1380;SDS011;684;48.342;10.096;2023-04-25T02:14:56;7.10;;;3.57;;
1380;SDS011;684;48.342;10.096;2023-04-25T02:17:23;7.97;;;3.77;;
1380;SDS011;684;48.342;10.096;2023-04-25T02:19:50;8.60;;;3.93;;
1380;SDS011;684;48.342;10.096;2023-04-25T02:22:16;7.23;;;3.43;;
1380;SDS011;684;48.342;10.096;2023-04-25T02:24:43;6.90;;;3.20;;
1380;SDS011;684;48.342;10.096;2023-04-25T02:27:10;7.17;;;3.33;;
1380;SDS011;684;48.342;10.096;2023-04-25T02:29:36;7.57;;;3.20;;
1380;SDS011;684;48.342;10.096;2023-04-25T02:32:05;11.63;;;4.10;;
1380;SDS011;684;48.342;10.096;2023-04-25T02:34:31;6.20;;;2.90;;
1380;SDS011;684;48.342;10.096;2023-04-25T02:36:58;7.87;;;4.10;;
1380;SDS011;684;48.342;10.096;2023-04-25T02:39:25;9.30;;;3.97;;
1380;SDS011;684;48.342;10.096;2023-04-25T02:41:52;11.20;;;3.80;;
1380;SDS011;684;48.342;10.096;2023-04-25T02:44:19;7.30;;;3.67;;
1380;SDS011;684;48.342;10.096;2023-04-25T02:46:45;5.80;;;3.23;;
1380;SDS011;684;48.342;10.096;2023-04-25T02:49:13;6.63;;;2.93;;
1380;SDS011;684;48.342;10.096;2023-04-25T02:51:40;7.13;;;3.03;;
1380;SDS011;684;48.342;10.096;2023-04-25T02:54:07;6.47;;;3.23;;
1380;SDS011;684;48.342;10.096;2023-04-25T02:56:34;8.40;;;2.63;;
1380;SDS011;684;48.342;10.096;2023-04-25T02:59:00;5.70;;;2.43;;
1380;SDS011;684;48.342;10.096;2023-04-25T03:01:27;5.17;;;2.30;;
1380;SDS011;684;48.342;10.096;2023-04-25T03:03:54;7.40;;;3.00;;
1380;SDS011;684;48.342;10.096;2023-04-25T03:06:22;5.97;;;3.13;;
1380;SDS011;684;48.342;10.096;2023-04-25T03:08:48;5.50;;;2.50;;
1380;SDS011;684;48.342;10.096;2023-04-25T03:11:15;8.93;;;2.30;;
1380;SDS011;684;48.342;10.096;2023-04-25T03:13:42;5.80;;;2.57;;
1380;SDS011;684;48.342;10.096;2023-04-25T03:16:09;5.60;;;2.30;;
1380;SDS011;684;48.342;10.096;2023-04-25T03:18:35;5.73;;;2.87;;
1380;SDS011;684;48.342;10.096;2023-04-25T03:21:02;6.27;;;2.80;;
1380;SDS011;684;48.342;10.096;2023-04-25T03:23:30;5.53;;;2.00;;
1380;SDS011;684;48.342;10.096;2023-04-25T03:25:57;6.10;;;2.20;;
1380;SDS011;684;48.342;10.096;2023-04-25T03:28:24;6.00;;;2.53;;
1380;SDS011;684;48.342;10.096;2023-04-25T03:30:50;5.43;;;2.90;;
1380;SDS011;684;48.342;10.096;2023-04-25T03:33:17;7.90;;;2.87;;
1380;SDS011;684;48.342;10.096;2023-04-25T03:35:44;6.20;;;2.33;;
1380;SDS011;684;48.342;10.096;2023-04-25T03:38:10;9.20;;;3.10;;
1380;SDS011;684;48.342;10.096;2023-04-25T03:40:39;6.90;;;3.00;;
1380;SDS011;684;48.342;10.096;2023-04-25T03:43:06;11.37;;;2.80;;
1380;SDS011;684;48.342;10.096;2023-04-25T03:45:32;7.10;;;2.57;;
1380;SDS011;684;48.342;10.096;2023-04-25T03:47:59;5.20;;;2.67;;
1380;SDS011;684;48.342;10.096;2023-04-25T03:50:26;6.40;;;2.40;;
1380;SDS011;684;48.342;10.096;2023-04-25T03:52:52;11.63;;;3.50;;
1380;SDS011;684;48.342;10.096;2023-04-25T03:55:19;8.93;;;3.00;;
1380;SDS011;684;48.342;10.096;2023-04-25T03:57:47;9.30;;;3.03;;
1380;SDS011;684;48.342;10.096;2023-04-25T04:00:14;9.20;;;3.50;;
1380;SDS011;684;48.342;10.096;2023-04-25T04:02:41;5.97;;;2.40;;
1380;SDS011;684;48.342;10.096;2023-04-25T04:05:08;6.77;;;3.20;;
1380;SDS011;684;48.342;10.096;2023-04-25T04:07:35;10.93;;;3.17;;
1380;SDS011;684;48.342;10.096;2023-04-25T04:10:05;6.80;;;3.03;;
1380;SDS011;684;48.342;10.096;2023-04-25T04:12:32;10.13;;;3.50;;
1380;SDS011;684;48.342;10.096;2023-04-25T04:15:00;6.83;;;2.70;;
1380;SDS011;684;48.342;10.096;2023-04-25T04:17:28;7.17;;;2.63;;
1380;SDS011;684;48.342;10.096;2023-04-25T04:19:54;6.20;;;2.70;;
1380;SDS011;684;48.342;10.096;2023-04-25T04:22:21;8.40;;;2.93;;
1380;SDS011;684;48.342;10.096;2023-04-25T04:24:48;8.83;;;3.00;;
1380;SDS011;684;48.342;10.096;2023-04-25T04:27:16;6.20;;;2.60;;
1380;SDS011;684;48.342;10.096;2023-04-25T04:29:44;6.67;;;2.43;;
1380;SDS011;684;48.342;10.096;2023-04-25T04:32:13;6.27;;;2.30;;
1380;SDS011;684;48.342;10.096;2023-04-25T04:34:40;7.70;;;2.90;;
1380;SDS011;684;48.342;10.096;2023-04-25T04:37:07;5.97;;;2.27;;
1380;SDS011;684;48.342;10.096;2023-04-25T04:39:34;8.80;;;2.20;;
1380;SDS011;684;48.342;10.096;2023-04-25T04:42:01;5.80;;;2.37;;
1380;SDS011;684;48.342;10.096;2023-04-25T04:44:29;4.70;;;2.30;;
1380;SDS011;684;48.342;10.096;2023-04-25T04:46:59;7.40;;;2.97;;
1380;SDS011;684;48.342;10.096;2023-04-25T04:49:28;7.50;;;2.63;;
1380;SDS011;684;48.342;10.096;2023-04-25T04:51:54;10.10;;;2.60;;
1380;SDS011;684;48.342;10.096;2023-04-25T04:54:21;5.20;;;2.27;;
1380;SDS011;684;48.342;10.096;2023-04-25T04:56:48;6.77;;;2.57;;
1380;SDS011;684;48.342;10.096;2023-04-25T04:59:15;7.70;;;3.13;;
1380;SDS011;684;48.342;10.096;2023-04-25T05:01:41;5.83;;;2.33;;
1380;SDS011;684;48.342;10.096;2023-04-25T05:04:08;5.90;;;2.70;;
1380;SDS011;684;48.342;10.096;2023-04-25T05:06:36;5.60;;;2.93;;
1380;SDS011;684;48.342;10.096;2023-04-25T05:09:03;8.50;;;3.13;;
1380;SDS011;684;48.342;10.096;2023-04-25T05:11:30;7.43;;;2.70;;
1380;SDS011;684;48.342;10.096;2023-04-25T05:13:56;7.07;;;3.20;;
1380;SDS011;684;48.342;10.096;2023-04-25T05:16:23;9.13;;;2.97;;
1380;SDS011;684;48.342;10.096;2023-04-25T05:18:50;5.77;;;3.70;;
1380;SDS011;684;48.342;10.096;2023-04-25T05:21:17;7.57;;;3.53;;
1380;SDS011;684;48.342;10.096;2023-04-25T05:23:45;6.90;;;3.50;;
1380;SDS011;684;48.342;10.096;2023-04-25T05:26:12;7.70;;;2.60;;
1380;SDS011;684;48.342;10.096;2023-04-25T05:28:39;7.90;;;2.53;;
1380;SDS011;684;48.342;10.096;2023-04-25T05:31:06;5.73;;;2.93;;
1380;SDS011;684;48.342;10.096;2023-04-25T05:33:35;8.40;;;2.90;;
1380;SDS011;684;48.342;10.096;2023-04-25T05:36:01;8.73;;;2.50;;
1380;SDS011;684;48.342;10.096;2023-04-25T05:38:28;9.30;;;3.40;;
1380;SDS011;684;48.342;10.096;2023-04-25T05:40:56;6.80;;;2.53;;
1380;SDS011;684;48.342;10.096;2023-04-25T05:43:23;10.60;;;2.60;;
1380;SDS011;684;48.342;10.096;2023-04-25T05:45:50;6.20;;;2.40;;
1380;SDS011;684;48.342;10.096;2023-04-25T05:48:16;6.10;;;3.13;;
1380;SDS011;684;48.342;10.096;2023-04-25T05:50:43;6.97;;;2.73;;
1380;SDS011;684;48.342;10.096;2023-04-25T05:53:10;7.17;;;2.67;;
1380;SDS011;684;48.342;10.096;2023-04-25T05:55:36;7.00;;;2.40;;
1380;SDS011;684;48.342;10.096;2023-04-25T05:58:05;5.70;;;2.20;;
1380;SDS011;684;48.342;10.096;2023-04-25T06:00:32;5.13;;;2.10;;
1380;SDS011;684;48.342;10.096;2023-04-25T06:02:59;7.67;;;2.87;;
1380;SDS011;684;48.342;10.096;2023-04-25T06:05:25;5.00;;;2.10;;
1380;SDS011;684;48.342;10.096;2023-04-25T06:07:52;6.17;;;2.43;;
1380;SDS011;684;48.342;10.096;2023-04-25T06:10:19;5.70;;;2.83;;
1380;SDS011;684;48.342;10.096;2023-04-25T06:12:46;7.60;;;2.47;;
1380;SDS011;684;48.342;10.096;2023-04-25T06:15:14;5.60;;;2.30;;
1380;SDS011;684;48.342;10.096;2023-04-25T06:17:41;7.40;;;2.30;;
1380;SDS011;684;48.342;10.096;2023-04-25T06:20:08;6.20;;;2.93;;
1380;SDS011;684;48.342;10.096;2023-04-25T06:22:35;6.10;;;2.40;;
1380;SDS011;684;48.342;10.096;2023-04-25T06:25:02;5.43;;;2.00;;
1380;SDS011;684;48.342;10.096;2023-04-25T06:27:29;5.40;;;2.07;;
1380;SDS011;684;48.342;10.096;2023-04-25T06:29:56;4.67;;;2.00;;
1380;SDS011;684;48.342;10.096;2023-04-25T06:32:24;5.00;;;1.60;;
1380;SDS011;684;48.342;10.096;2023-04-25T06:34:52;6.43;;;2.30;;
1380;SDS011;684;48.342;10.096;2023-04-25T06:37:19;6.00;;;1.50;;
1380;SDS011;684;48.342;10.096;2023-04-25T06:39:46;5.00;;;1.80;;
1380;SDS011;684;48.342;10.096;2023-04-25T06:42:12;5.80;;;2.17;;
1380;SDS011;684;48.342;10.096;2023-04-25T06:44:39;5.70;;;2.00;;
1380;SDS011;684;48.342;10.096;2023-04-25T06:47:06;4.87;;;1.50;;
1380;SDS011;684;48.342;10.096;2023-04-25T06:49:34;6.07;;;1.93;;
1380;SDS011;684;48.342;10.096;2023-04-25T06:52:01;4.97;;;1.97;;
1380;SDS011;684;48.342;10.096;2023-04-25T06:54:28;5.50;;;1.70;;
1380;SDS011;684;48.342;10.096;2023-04-25T06:56:54;6.10;;;1.67;;
1380;SDS011;684;48.342;10.096;2023-04-25T06:59:21;4.47;;;1.73;;
1380;SDS011;684;48.342;10.096;2023-04-25T07:01:48;5.10;;;1.70;;
1380;SDS011;684;48.342;10.096;2023-04-25T07:04:15;5.27;;;1.77;;
1380;SDS011;684;48.342;10.096;2023-04-25T07:06:43;4.23;;;1.87;;
1380;SDS011;684;48.342;10.096;2023-04-25T07:09:12;9.90;;;1.77;;
1380;SDS011;684;48.342;10.096;2023-04-25T07:11:39;4.43;;;1.50;;
1380;SDS011;684;48.342;10.096;2023-04-25T07:14:06;5.00;;;1.80;;
1380;SDS011;684;48.342;10.096;2023-04-25T07:16:32;4.07;;;1.53;;
1380;SDS011;684;48.342;10.096;2023-04-25T07:18:59;5.30;;;1.90;;
1380;SDS011;684;48.342;10.096;2023-04-25T07:21:26;5.50;;;2.07;;
1380;SDS011;684;48.342;10.096;2023-04-25T07:23:54;4.43;;;1.73;;
1380;SDS011;684;48.342;10.096;2023-04-25T07:26:20;4.80;;;2.07;;
1380;SDS011;684;48.342;10.096;2023-04-25T07:28:47;4.70;;;1.80;;
1380;SDS011;684;48.342;10.096;2023-04-25T07:31:16;3.90;;;1.70;;
1380;SDS011;684;48.342;10.096;2023-04-25T07:33:43;4.20;;;1.70;;
1380;SDS011;684;48.342;10.096;2023-04-25T07:36:10;6.40;;;2.00;;
1380;SDS011;684;48.342;10.096;2023-04-25T07:38:37;6.43;;;2.10;;
1380;SDS011;684;48.342;10.096;2023-04-25T07:41:05;4.50;;;2.10;;
1380;SDS011;684;48.342;10.096;2023-04-25T07:43:32;6.60;;;2.40;;
1380;SDS011;684;48.342;10.096;2023-04-25T07:45:58;5.53;;;1.90;;
1380;SDS011;684;48.342;10.096;2023-04-25T07:48:25;4.60;;;1.80;;
1380;SDS011;684;48.342;10.096;2023-04-25T07:50:52;4.73;;;2.37;;
1380;SDS011;684;48.342;10.096;2023-04-25T07:53:19;5.00;;;2.13;;
1380;SDS011;684;48.342;10.096;2023-04-25T07:55:46;6.70;;;2.30;;
1380;SDS011;684;48.342;10.096;2023-04-25T07:58:14;8.40;;;2.40;;
1380;SDS011;684;48.342;10.096;2023-04-25T08:00:46;9.23;;;3.40;;
1380;SDS011;684;48.342;10.096;2023-04-25T08:03:12;6.47;;;3.27;;
1380;SDS011;684;48.342;10.096;2023-04-25T08:05:39;5.83;;;2.60;;
1380;SDS011;684;48.342;10.096;2023-04-25T08:08:06;5.27;;;2.10;;
1380;SDS011;684;48.342;10.096;2023-04-25T08:10:33;6.30;;;1.97;;
1380;SDS011;684;48.342;10.096;2023-04-25T08:12:59;11.00;;;2.30;;
1380;SDS011;684;48.342;10.096;2023-04-25T08:15:28;4.43;;;1.63;;
1380;SDS011;684;48.342;10.096;2023-04-25T08:17:54;10.10;;;2.87;;
1380;SDS011;684;48.342;10.096;2023-04-25T08:20:21;5.47;;;2.43;;
1380;SDS011;684;48.342;10.096;2023-04-25T08:22:48;6.43;;;2.37;;
1380;SDS011;684;48.342;10.096;2023-04-25T08:25:14;8.87;;;2.60;;
1380;SDS011;684;48.342;10.096;2023-04-25T08:27:41;6.60;;;2.70;;
1380;SDS011;684;48.342;10.096;2023-04-25T08:30:08;6.13;;;2.20;;
1380;SDS011;684;48.342;10.096;2023-04-25T08:32:36;7.10;;;2.30;;
1380;SDS011;684;48.342;10.096;2023-04-25T08:35:04;5.87;;;2.10;;
1380;SDS011;684;48.342;10.096;2023-04-25T08:37:31;6.43;;;2.97;;
1380;SDS011;684;48.342;10.096;2023-04-25T08:39:58;7.80;;;2.53;;
1380;SDS011;684;48.342;10.096;2023-04-25T08:42:25;6.93;;;3.83;;
1380;SDS011;684;48.342;10.096;2023-04-25T08:44:53;7.73;;;2.80;;
1380;SDS011;684;48.342;10.096;2023-04-25T08:47:22;5.93;;;2.37;;
1380;SDS011;684;48.342;10.096;2023-04-25T08:49:50;5.90;;;2.50;;
1380;SDS011;684;48.342;10.096;2023-04-25T08:52:21;5.60;;;2.47;;
1380;SDS011;684;48.342;10.096;2023-04-25T08:54:49;5.60;;;2.70;;
1380;SDS011;684;48.342;10.096;2023-04-25T08:57:18;6.13;;;2.70;;
1380;SDS011;684;48.342;10.096;2023-04-25T08:59:47;8.93;;;2.00;;
1380;SDS011;684;48.342;10.096;2023-04-25T09:02:14;15.50;;;2.43;;
1380;SDS011;684;48.342;10.096;2023-04-25T09:04:43;8.03;;;3.33;;
1380;SDS011;684;48.342;10.096;2023-04-25T09:07:11;8.30;;;2.43;;
1380;SDS011;684;48.342;10.096;2023-04-25T09:09:40;5.97;;;2.20;;
1380;SDS011;684;48.342;10.096;2023-04-25T09:12:07;7.33;;;2.53;;
1380;SDS011;684;48.342;10.096;2023-04-25T09:14:34;6.43;;;2.80;;
1380;SDS011;684;48.342;10.096;2023-04-25T09:17:02;7.30;;;2.17;;
1380;SDS011;684;48.342;10.096;2023-04-25T09:19:33;8.33;;;2.60;;
1380;SDS011;684;48.342;10.096;2023-04-25T09:22:01;5.87;;;2.10;;
1380;SDS011;684;48.342;10.096;2023-04-25T09:24:34;5.20;;;2.00;;
1380;SDS011;684;48.342;10.096;2023-04-25T09:27:05;6.33;;;2.47;;
1380;SDS011;684;48.342;10.096;2023-04-25T09:29:33;5.50;;;2.10;;
1380;SDS011;684;48.342;10.096;2023-04-25T09:32:10;5.63;;;2.30;;
1380;SDS011;684;48.342;10.096;2023-04-25T09:34:39;6.60;;;2.20;;
1380;SDS011;684;48.342;10.096;2023-04-25T09:37:07;6.47;;;2.17;;
1380;SDS011;684;48.342;10.096;2023-04-25T09:39:36;4.90;;;1.97;;
1380;SDS011;684;48.342;10.096;2023-04-25T09:42:03;4.67;;;1.70;;
1380;SDS011;684;48.342;10.096;2023-04-25T09:44:30;5.23;;;1.80;;
1380;SDS011;684;48.342;10.096;2023-04-25T09:46:57;5.50;;;1.83;;
1380;SDS011;684;48.342;10.096;2023-04-25T09:49:24;6.13;;;1.90;;
1380;SDS011;684;48.342;10.096;2023-04-25T09:51:55;4.40;;;1.50;;
1380;SDS011;684;48.342;10.096;2023-04-25T09:54:24;6.07;;;2.17;;
1380;SDS011;684;48.342;10.096;2023-04-25T09:56:53;4.90;;;2.37;;
1380;SDS011;684;48.342;10.096;2023-04-25T09:59:20;4.63;;;2.10;;
1380;SDS011;684;48.342;10.096;2023-04-25T10:01:48;5.30;;;2.17;;
1380;SDS011;684;48.342;10.096;2023-04-25T10:04:18;4.53;;;1.60;;
1380;SDS011;684;48.342;10.096;2023-04-25T10:06:49;4.97;;;2.10;;
1380;SDS011;684;48.342;10.096;2023-04-25T10:09:17;6.03;;;2.17;;
1380;SDS011;684;48.342;10.096;2023-04-25T10:11:46;5.53;;;1.67;;
1380;SDS011;684;48.342;10.096;2023-04-25T10:14:15;4.87;;;2.00;;
1380;SDS011;684;48.342;10.096;2023-04-25T10:16:42;4.40;;;1.90;;
1380;SDS011;684;48.342;10.096;2023-04-25T10:19:09;6.33;;;1.57;;
1380;SDS011;684;48.342;10.096;2023-04-25T10:21:36;5.23;;;2.30;;
1380;SDS011;684;48.342;10.096;2023-04-25T10:24:10;5.07;;;2.30;;
1380;SDS011;684;48.342;10.096;2023-04-25T10:26:37;4.83;;;2.13;;
1380;SDS011;684;48.342;10.096;2023-04-25T10:29:05;5.80;;;1.87;;
1380;SDS011;684;48.342;10.096;2023-04-25T10:31:33;5.43;;;2.63;;
1380;SDS011;684;48.342;10.096;2023-04-25T10:34:10;5.83;;;2.37;;
1380;SDS011;684;48.342;10.096;2023-04-25T10:36:36;5.17;;;1.90;;
1380;SDS011;684;48.342;10.096;2023-04-25T10:39:05;6.30;;;2.60;;
1380;SDS011;684;48.342;10.096;2023-04-25T10:41:45;7.10;;;2.43;;
1380;SDS011;684;48.342;10.096;2023-04-25T10:44:12;5.30;;;2.50;;
1380;SDS011;684;48.342;10.096;2023-04-25T10:46:41;4.67;;;2.13;;
1380;SDS011;684;48.342;10.096;2023-04-25T10:49:14;5.80;;;2.60;;
1380;SDS011;684;48.342;10.096;2023-04-25T10:54:40;5.10;;;2.53;;
1380;SDS011;684;48.342;10.096;2023-04-25T10:57:07;5.50;;;2.30;;
1380;SDS011;684;48.342;10.096;2023-04-25T10:59:52;5.87;;;1.73;;
1380;SDS011;684;48.342;10.096;2023-04-25T11:02:20;5.20;;;1.47;;
1380;SDS011;684;48.342;10.096;2023-04-25T11:04:52;4.97;;;2.00;;
1380;SDS011;684;48.342;10.096;2023-04-25T11:07:22;3.90;;;1.37;;
1380;SDS011;684;48.342;10.096;2023-04-25T11:09:54;3.97;;;1.30;;
1380;SDS011;684;48.342;10.096;2023-04-25T11:12:21;5.63;;;1.97;;
1380;SDS011;684;48.342;10.096;2023-04-25T11:14:51;4.13;;;1.60;;
1380;SDS011;684;48.342;10.096;2023-04-25T11:17:27;5.33;;;1.57;;
1380;SDS011;684;48.342;10.096;2023-04-25T11:19:54;4.50;;;1.53;;
1380;SDS011;684;48.342;10.096;2023-04-25T11:22:21;4.00;;;1.10;;
1380;SDS011;684;48.342;10.096;2023-04-25T11:24:49;4.27;;;1.50;;
1380;SDS011;684;48.342;10.096;2023-04-25T11:27:16;5.40;;;1.70;;
1380;SDS011;684;48.342;10.096;2023-04-25T11:29:43;4.53;;;1.50;;
1380;SDS011;684;48.342;10.096;2023-04-25T11:32:09;4.10;;;1.53;;
1380;SDS011;684;48.342;10.096;2023-04-25T11:34:37;5.30;;;1.60;;
1380;SDS011;684;48.342;10.096;2023-04-25T11:37:04;4.80;;;1.40;;
1380;SDS011;684;48.342;10.096;2023-04-25T11:39:31;5.50;;;1.90;;
1380;SDS011;684;48.342;10.096;2023-04-25T11:41:58;4.50;;;1.40;;
1380;SDS011;684;48.342;10.096;2023-04-25T11:44:26;7.87;;;2.07;;
1380;SDS011;684;48.342;10.096;2023-04-25T11:46:54;5.57;;;1.60;;
1380;SDS011;684;48.342;10.096;2023-04-25T11:49:21;4.20;;;1.53;;
1380;SDS011;684;48.342;10.096;2023-04-25T11:51:51;4.73;;;1.90;;
1380;SDS011;684;48.342;10.096;2023-04-25T11:54:17;4.77;;;1.60;;
1380;SDS011;684;48.342;10.096;2023-04-25T11:56:44;4.77;;;1.70;;
1380;SDS011;684;48.342;10.096;2023-04-25T11:59:12;6.13;;;2.10;;
1380;SDS011;684;48.342;10.096;2023-04-25T12:01:40;5.80;;;1.80;;
1380;SDS011;684;48.342;10.096;2023-04-25T12:04:14;5.50;;;2.40;;
1380;SDS011;684;48.342;10.096;2023-04-25T12:06:42;5.30;;;2.27;;
1380;SDS011;684;48.342;10.096;2023-04-25T12:09:13;6.30;;;1.90;;
1380;SDS011;684;48.342;10.096;2023-04-25T12:11:42;4.40;;;1.50;;
1380;SDS011;684;48.342;10.096;2023-04-25T12:14:09;4.77;;;1.80;;
1380;SDS011;684;48.342;10.096;2023-04-25T12:16:40;5.07;;;1.20;;
1380;SDS011;684;48.342;10.096;2023-04-25T12:19:07;4.67;;;2.03;;
1380;SDS011;684;48.342;10.096;2023-04-25T12:21:34;7.33;;;1.80;;
1380;SDS011;684;48.342;10.096;2023-04-25T12:24:09;3.90;;;1.10;;
1380;SDS011;684;48.342;10.096;2023-04-25T12:26:48;4.40;;;1.40;;
1380;SDS011;684;48.342;10.096;2023-04-25T12:29:17;4.70;;;1.67;;
1380;SDS011;684;48.342;10.096;2023-04-25T12:31:45;4.40;;;1.70;;
1380;SDS011;684;48.342;10.096;2023-04-25T12:34:12;4.70;;;2.10;;
1380;SDS011;684;48.342;10.096;2023-04-25T12:36:39;5.83;;;2.13;;
1380;SDS011;684;48.342;10.096;2023-04-25T12:39:06;5.17;;;2.07;;
1380;SDS011;684;48.342;10.096;2023-04-25T12:41:33;5.07;;;2.10;;
1380;SDS011;684;48.342;10.096;2023-04-25T12:44:01;4.57;;;2.00;;
1380;SDS011;684;48.342;10.096;2023-04-25T12:46:28;5.00;;;2.17;;
1380;SDS011;684;48.342;10.096;2023-04-25T12:48:55;5.47;;;2.10;;
1380;SDS011;684;48.342;10.096;2023-04-25T12:51:22;6.53;;;2.20;;
1380;SDS011;684;48.342;10.096;2023-04-25T12:53:50;5.23;;;2.30;;
1380;SDS011;684;48.342;10.096;2023-04-25T12:56:17;6.13;;;3.10;;
1380;SDS011;684;48.342;10.096;2023-04-25T12:58:44;5.60;;;2.60;;
1380;SDS011;684;48.342;10.096;2023-04-25T13:01:12;5.20;;;2.07;;
1380;SDS011;684;48.342;10.096;2023-04-25T13:03:39;4.30;;;1.73;;
1380;SDS011;684;48.342;10.096;2023-04-25T13:06:06;4.53;;;1.63;;
1380;SDS011;684;48.342;10.096;2023-04-25T13:08:33;3.70;;;0.97;;
1380;SDS011;684;48.342;10.096;2023-04-25T13:11:01;4.40;;;1.50;;
1380;SDS011;684;48.342;10.096;2023-04-25T13:13:29;4.90;;;2.33;;
1380;SDS011;684;48.342;10.096;2023-04-25T13:15:56;4.10;;;1.60;;
1380;SDS011;684;48.342;10.096;2023-04-25T13:18:24;4.13;;;1.30;;
1380;SDS011;684;48.342;10.096;2023-04-25T13:20:51;4.03;;;1.20;;
1380;SDS011;684;48.342;10.096;2023-04-25T13:23:18;3.90;;;1.27;;
1380;SDS011;684;48.342;10.096;2023-04-25T13:25:46;5.30;;;1.20;;
1380;SDS011;684;48.342;10.096;2023-04-25T13:28:13;3.70;;;1.00;;
1380;SDS011;684;48.342;10.096;2023-04-25T13:30:40;3.50;;;0.80;;
1380;SDS011;684;48.342;10.096;2023-04-25T13:33:07;3.70;;;1.00;;
1380;SDS011;684;48.342;10.096;2023-04-25T13:35:35;3.60;;;0.90;;
1380;SDS011;684;48.342;10.096;2023-04-25T13:38:03;4.33;;;0.93;;
1380;SDS011;684;48.342;10.096;2023-04-25T13:40:30;3.80;;;0.90;;
1380;SDS011;684;48.342;10.096;2023-04-25T13:42:58;3.50;;;0.70;;
1380;SDS011;684;48.342;10.096;2023-04-25T13:45:25;4.20;;;1.30;;
1380;SDS011;684;48.342;10.096;2023-04-25T13:47:51;3.73;;;0.90;;
1380;SDS011;684;48.342;10.096;2023-04-25T13:50:18;3.90;;;1.20;;
1380;SDS011;684;48.342;10.096;2023-04-25T13:52:46;4.30;;;1.33;;
1380;SDS011;684;48.342;10.096;2023-04-25T13:55:13;5.37;;;1.90;;
1380;SDS011;684;48.342;10.096;2023-04-25T13:57:40;4.77;;;2.20;;
1380;SDS011;684;48.342;10.096;2023-04-25T14:00:07;4.43;;;1.80;;
1380;SDS011;684;48.342;10.096;2023-04-25T14:02:35;5.07;;;2.10;;
1380;SDS011;684;48.342;10.096;2023-04-25T14:05:02;7.07;;;1.90;;
1380;SDS011;684;48.342;10.096;2023-04-25T14:07:30;4.77;;;2.10;;
1380;SDS011;684;48.342;10.096;2023-04-25T14:09:58;4.50;;;2.20;;
1380;SDS011;684;48.342;10.096;2023-04-25T14:12:25;5.03;;;2.20;;
1380;SDS011;684;48.342;10.096;2023-04-25T14:14:52;4.80;;;2.23;;
1380;SDS011;684;48.342;10.096;2023-04-25T14:17:22;5.10;;;2.23;;
1380;SDS011;684;48.342;10.096;2023-04-25T14:19:49;5.80;;;2.30;;
1380;SDS011;684;48.342;10.096;2023-04-25T14:22:16;4.90;;;2.00;;
1380;SDS011;684;48.342;10.096;2023-04-25T14:24:42;5.13;;;2.40;;
1380;SDS011;684;48.342;10.096;2023-04-25T14:27:11;5.77;;;2.10;;
1380;SDS011;684;48.342;10.096;2023-04-25T14:29:37;6.50;;;2.87;;
1380;SDS011;684;48.342;10.096;2023-04-25T14:32:05;4.60;;;2.03;;
1380;SDS011;684;48.342;10.096;2023-04-25T14:34:32;6.43;;;2.60;;
1380;SDS011;684;48.342;10.096;2023-04-25T14:36:58;5.80;;;2.33;;
1380;SDS011;684;48.342;10.096;2023-04-25T14:39:25;6.20;;;2.50;;
1380;SDS011;684;48.342;10.096;2023-04-25T14:41:52;4.50;;;1.97;;
1380;SDS011;684;48.342;10.096;2023-04-25T14:44:20;4.80;;;2.00;;
1380;SDS011;684;48.342;10.096;2023-04-25T14:46:46;5.30;;;2.30;;
1380;SDS011;684;48.342;10.096;2023-04-25T14:49:16;5.37;;;2.50;;
1380;SDS011;684;48.342;10.096;2023-04-25T14:51:43;5.23;;;2.97;;
1380;SDS011;684;48.342;10.096;2023-04-25T14:54:10;5.13;;;2.33;;
1380;SDS011;684;48.342;10.096;2023-04-25T14:56:37;5.43;;;2.27;;
1380;SDS011;684;48.342;10.096;2023-04-25T14:59:03;5.10;;;1.90;;
1380;SDS011;684;48.342;10.096;2023-04-25T15:01:32;5.70;;;2.47;;
1380;SDS011;684;48.342;10.096;2023-04-25T15:03:59;4.77;;;2.17;;
1380;SDS011;684;48.342;10.096;2023-04-25T15:06:26;6.67;;;2.70;;
1380;SDS011;684;48.342;10.096;2023-04-25T15:08:54;5.70;;;2.10;;
1380;SDS011;684;48.342;10.096;2023-04-25T15:11:21;4.63;;;1.97;;
1380;SDS011;684;48.342;10.096;2023-04-25T15:13:48;4.80;;;1.70;;
1380;SDS011;684;48.342;10.096;2023-04-25T15:16:15;4.90;;;2.20;;
1380;SDS011;684;48.342;10.096;2023-04-25T15:18:43;4.80;;;2.00;;
1380;SDS011;684;48.342;10.096;2023-04-25T15:21:10;6.73;;;2.27;;